createdAt,value
2023-01-08T00:01:17.241Z,97347.00
2023-01-08T00:03:44.702Z,97347.00
2023-01-08T00:06:18.215Z,97350.00
2023-01-08T00:08:45.901Z,97354.00
2023-01-08T00:11:13.664Z,97346.00
2023-01-08T00:13:41.481Z,97338.00
2023-01-08T00:16:15.025Z,97333.00
2023-01-08T00:18:42.693Z,97344.00
2023-01-08T00:21:10.296Z,97348.00
2023-01-08T00:23:37.960Z,97347.00
2023-01-08T00:26:09.073Z,97321.00
2023-01-08T00:28:37.301Z,97329.00
2023-01-08T00:31:09.138Z,97311.00
2023-01-08T00:33:37.137Z,97317.00
2023-01-08T00:36:10.061Z,97309.00
2023-01-08T00:38:37.440Z,97302.00
2023-01-08T00:41:05.314Z,97301.00
2023-01-08T00:43:32.673Z,97295.00
2023-01-08T00:46:00.012Z,97294.00
2023-01-08T00:48:27.469Z,97292.00
2023-01-08T00:50:54.754Z,97297.00
2023-01-08T00:53:22.840Z,97309.00
2023-01-08T00:55:50.207Z,97301.00
2023-01-08T00:58:18.013Z,97297.00
2023-01-08T01:00:45.121Z,97305.00
2023-01-08T01:03:12.153Z,97308.00
2023-01-08T01:05:39.242Z,97307.00
2023-01-08T01:08:06.409Z,97305.00
2023-01-08T01:10:33.632Z,97313.00
2023-01-08T01:13:00.769Z,97307.00
2023-01-08T01:15:27.847Z,97310.00
2023-01-08T01:17:54.989Z,97300.00
2023-01-08T01:20:23.783Z,97297.00
2023-01-08T01:22:50.991Z,97303.00
2023-01-08T01:25:18.326Z,97297.00
2023-01-08T01:27:45.478Z,97294.00
2023-01-08T01:30:13.244Z,97287.00
2023-01-08T01:32:40.375Z,97280.00
2023-01-08T01:35:08.121Z,97271.00
2023-01-08T01:37:35.356Z,97284.00
2023-01-08T01:40:02.862Z,97273.00
2023-01-08T01:42:43.928Z,97270.00
2023-01-08T01:45:30.267Z,97265.00
2023-01-08T01:48:11.919Z,97263.00
2023-01-08T01:50:51.438Z,97264.00
2023-01-08T01:53:38.122Z,97264.00
2023-01-08T01:56:05.709Z,97259.00
2023-01-08T01:58:33.146Z,97249.00
2023-01-08T02:01:07.435Z,97244.00
2023-01-08T02:03:38.234Z,97245.00
2023-01-08T02:06:33.524Z,97247.00
2023-01-08T02:09:08.968Z,97254.00
2023-01-08T02:12:09.547Z,97233.00
2023-01-08T02:15:00.748Z,97236.00
2023-01-08T02:17:59.433Z,97237.00
2023-01-08T02:20:32.758Z,97238.00
2023-01-08T02:23:15.266Z,97246.00
2023-01-08T02:26:17.748Z,97238.00
2023-01-08T02:28:50.151Z,97237.00
2023-01-08T02:31:19.960Z,97236.00
2023-01-08T02:33:47.081Z,97244.00
2023-01-08T02:36:56.465Z,97243.00
2023-01-08T02:39:47.999Z,97235.00
2023-01-08T02:42:15.000Z,97233.00
2023-01-08T02:45:09.121Z,97226.00
2023-01-08T02:47:42.935Z,97230.00
2023-01-08T02:50:18.456Z,97211.00
2023-01-08T02:53:14.675Z,97219.00
2023-01-08T02:55:47.200Z,97224.00
2023-01-08T02:58:15.541Z,97218.00
2023-01-08T03:00:45.043Z,97214.00
2023-01-08T03:03:23.229Z,97214.00
2023-01-08T03:05:59.130Z,97207.00
2023-01-08T03:08:28.050Z,97219.00
2023-01-08T03:11:11.179Z,97208.00
2023-01-08T03:13:50.983Z,97203.00
2023-01-08T03:16:26.244Z,97198.00
2023-01-08T03:19:00.540Z,97186.00
2023-01-08T03:21:27.948Z,97202.00
2023-01-08T03:23:55.244Z,97197.00
2023-01-08T03:26:26.531Z,97194.00
2023-01-08T03:28:55.959Z,97193.00
2023-01-08T03:31:26.560Z,97170.00
2023-01-08T03:33:55.361Z,97168.00
2023-01-08T03:36:27.675Z,97161.00
2023-01-08T03:38:59.162Z,97165.00
2023-01-08T03:41:30.187Z,97175.00
2023-01-08T03:43:57.670Z,97161.00
2023-01-08T03:46:33.537Z,97164.00
2023-01-08T03:49:02.254Z,97159.00
2023-01-08T03:51:29.417Z,97159.00
2023-01-08T03:53:59.062Z,97152.00
2023-01-08T03:56:26.286Z,97151.00
2023-01-08T03:58:53.430Z,97152.00
2023-01-08T04:01:20.590Z,97152.00
2023-01-08T04:03:47.809Z,97149.00
2023-01-08T04:06:14.889Z,97139.00
2023-01-08T04:08:41.874Z,97129.00
2023-01-08T04:11:08.953Z,97131.00
2023-01-08T04:13:36.019Z,97139.00
2023-01-08T04:16:03.263Z,97122.00
2023-01-08T04:18:30.600Z,97124.00
2023-01-08T04:20:57.749Z,97125.00
2023-01-08T04:23:24.957Z,97126.00
2023-01-08T04:25:52.899Z,97128.00
2023-01-08T04:28:21.542Z,97125.00
2023-01-08T04:30:48.698Z,97121.00
2023-01-08T04:33:15.875Z,97131.00
2023-01-08T04:35:42.939Z,97140.00
2023-01-08T04:38:11.649Z,97136.00
2023-01-08T04:40:38.804Z,97146.00
2023-01-08T04:43:05.819Z,97142.00
2023-01-08T04:45:32.870Z,97144.00
2023-01-08T04:48:00.767Z,97143.00
2023-01-08T04:50:28.126Z,97144.00
2023-01-08T04:52:55.226Z,97129.00
2023-01-08T04:55:22.397Z,97129.00
2023-01-08T04:57:50.145Z,97117.00
2023-01-08T05:00:17.621Z,97119.00
2023-01-08T05:02:44.959Z,97112.00
2023-01-08T05:05:12.191Z,97105.00
2023-01-08T05:07:39.275Z,97092.00
2023-01-08T05:10:07.345Z,97093.00
2023-01-08T05:12:34.510Z,97094.00
2023-01-08T05:15:01.631Z,97090.00
2023-01-08T05:17:28.819Z,97086.00
2023-01-08T05:19:56.140Z,97084.00
2023-01-08T05:22:23.363Z,97082.00
2023-01-08T05:24:50.419Z,97073.00
2023-01-08T05:27:17.487Z,97074.00
2023-01-08T05:29:44.562Z,97072.00
2023-01-08T05:32:17.460Z,97071.00
2023-01-08T05:34:45.720Z,97074.00
2023-01-08T05:37:12.896Z,97067.00
2023-01-08T05:39:39.920Z,97072.00
2023-01-08T05:42:06.911Z,97066.00
2023-01-08T05:44:33.991Z,97068.00
2023-01-08T05:47:01.036Z,97062.00
2023-01-08T05:49:28.047Z,97071.00
2023-01-08T05:51:55.087Z,97068.00
2023-01-08T05:54:22.194Z,97071.00
2023-01-08T05:56:49.279Z,97085.00
2023-01-08T05:59:16.318Z,97094.00
2023-01-08T06:01:43.455Z,97092.00
2023-01-08T06:04:10.587Z,97104.00
2023-01-08T06:06:37.671Z,97109.00
2023-01-08T06:09:04.793Z,97112.00
2023-01-08T06:11:31.960Z,97109.00
2023-01-08T06:13:59.005Z,97120.00
2023-01-08T06:16:26.107Z,97103.00
2023-01-08T06:18:53.254Z,97102.00
2023-01-08T06:21:20.344Z,97090.00
2023-01-08T06:23:47.523Z,97068.00
2023-01-08T06:26:14.746Z,97056.00
2023-01-08T06:28:41.888Z,97050.00
2023-01-08T06:31:09.020Z,97065.00
2023-01-08T06:33:36.164Z,97055.00
2023-01-08T06:36:05.532Z,97043.00
2023-01-08T06:38:35.136Z,97042.00
2023-01-08T06:41:10.668Z,97029.00
2023-01-08T06:43:39.206Z,97032.00
2023-01-08T06:46:08.108Z,97028.00
2023-01-08T06:48:36.536Z,97026.00
2023-01-08T06:51:04.790Z,97022.00
2023-01-08T06:53:33.216Z,97021.00
2023-01-08T06:56:00.277Z,97027.00
2023-01-08T06:58:28.383Z,97035.00
2023-01-08T07:00:55.579Z,97030.00
2023-01-08T07:03:22.663Z,97023.00
2023-01-08T07:05:50.915Z,97034.00
2023-01-08T07:08:18.672Z,97023.00
2023-01-08T07:10:46.230Z,97034.00
2023-01-08T07:13:13.514Z,97040.00
2023-01-08T07:15:41.864Z,97045.00
2023-01-08T07:18:11.384Z,97056.00
2023-01-08T07:20:39.376Z,97062.00
2023-01-08T07:23:10.042Z,97050.00
2023-01-08T07:25:37.127Z,97059.00
2023-01-08T07:28:04.243Z,97055.00
2023-01-08T07:30:31.326Z,97050.00
2023-01-08T07:33:00.544Z,97053.00
2023-01-08T07:35:28.244Z,97052.00
2023-01-08T07:37:55.376Z,97061.00
2023-01-08T07:40:22.583Z,97069.00
2023-01-08T07:42:58.248Z,97079.00
2023-01-08T07:45:26.085Z,97071.00
2023-01-08T07:47:53.122Z,97072.00
2023-01-08T07:50:20.257Z,97078.00
2023-01-08T07:52:47.595Z,97086.00
2023-01-08T07:55:14.826Z,97094.00
2023-01-08T07:57:41.846Z,97090.00
2023-01-08T08:00:10.207Z,97098.00
2023-01-08T08:02:37.614Z,97085.00
2023-01-08T08:05:05.229Z,97075.00
2023-01-08T08:07:32.535Z,97080.00
2023-01-08T08:09:59.548Z,97077.00
2023-01-08T08:12:26.544Z,97077.00
2023-01-08T08:14:53.536Z,97077.00
2023-01-08T08:17:20.574Z,97083.00
2023-01-08T08:19:47.593Z,97076.00
2023-01-08T08:22:14.787Z,97063.00
2023-01-08T08:24:41.889Z,97053.00
2023-01-08T08:27:08.877Z,97051.00
2023-01-08T08:29:35.933Z,97045.00
2023-01-08T08:32:03.074Z,97054.00
2023-01-08T08:34:30.047Z,97062.00
2023-01-08T08:36:57.094Z,97068.00
2023-01-08T08:39:24.108Z,97066.00
2023-01-08T08:41:51.115Z,97060.00
2023-01-08T08:44:18.175Z,97057.00
2023-01-08T08:46:45.243Z,97052.00
2023-01-08T08:49:12.357Z,97046.00
2023-01-08T08:51:39.366Z,97052.00
2023-01-08T08:54:06.417Z,97046.00
2023-01-08T08:56:33.411Z,97051.00
2023-01-08T08:59:00.517Z,97039.00
2023-01-08T09:01:27.932Z,97047.00
2023-01-08T09:03:55.092Z,97066.00
2023-01-08T09:06:22.372Z,97052.00
2023-01-08T09:08:49.377Z,97050.00
2023-01-08T09:11:16.554Z,97049.00
2023-01-08T09:13:43.670Z,97059.00
2023-01-08T09:16:10.831Z,97061.00
2023-01-08T09:18:37.942Z,97066.00
2023-01-08T09:21:07.316Z,97071.00
2023-01-08T09:23:35.247Z,97083.00
2023-01-08T09:26:04.076Z,97083.00
2023-01-08T09:28:32.218Z,97084.00
2023-01-08T09:31:04.123Z,97092.00
2023-01-08T09:33:32.093Z,97095.00
2023-01-08T09:35:59.162Z,97096.00
2023-01-08T09:38:28.279Z,97097.00
2023-01-08T09:41:13.808Z,97085.00
2023-01-08T09:43:45.868Z,97064.00
2023-01-08T09:46:15.211Z,97085.00
2023-01-08T09:48:42.891Z,97099.00
2023-01-08T09:51:16.405Z,97112.00
2023-01-08T09:53:44.873Z,97096.00
2023-01-08T09:56:18.214Z,97102.00
2023-01-08T09:58:49.007Z,97111.00
2023-01-08T10:01:23.720Z,97118.00
2023-01-08T10:04:08.345Z,97108.00
2023-01-08T10:06:35.383Z,97095.00
2023-01-08T10:09:02.766Z,97105.00
2023-01-08T10:11:41.151Z,97109.00
2023-01-08T10:14:23.883Z,97099.00
2023-01-08T10:17:12.183Z,97103.00
2023-01-08T10:19:39.248Z,97100.00
2023-01-08T10:22:23.924Z,97106.00
2023-01-08T10:24:52.890Z,97104.00
2023-01-08T10:27:24.251Z,97092.00
2023-01-08T10:29:52.770Z,97078.00
2023-01-08T10:32:29.517Z,97081.00
2023-01-08T10:34:58.100Z,97084.00
2023-01-08T10:37:30.415Z,97087.00
2023-01-08T10:40:29.733Z,97070.00
2023-01-08T10:43:06.014Z,97065.00
2023-01-08T10:45:33.771Z,97051.00
2023-01-08T10:48:05.877Z,97052.00
2023-01-08T10:50:35.736Z,97046.00
2023-01-08T10:53:07.042Z,97042.00
2023-01-08T10:55:37.578Z,97044.00
2023-01-08T10:58:15.649Z,97042.00
2023-01-08T11:00:42.950Z,97027.00
2023-01-08T11:03:42.261Z,97031.00
2023-01-08T11:06:17.456Z,97040.00
2023-01-08T11:08:58.219Z,97020.00
2023-01-08T11:11:32.905Z,97022.00
2023-01-08T11:14:04.893Z,97023.00
2023-01-08T11:16:41.422Z,97040.00
2023-01-08T11:19:30.041Z,97044.00
2023-01-08T11:22:05.667Z,97046.00
2023-01-08T11:24:38.048Z,97049.00
2023-01-08T11:27:23.741Z,97042.00
2023-01-08T11:30:04.568Z,97030.00
2023-01-08T11:33:01.810Z,97033.00
2023-01-08T11:35:36.711Z,97020.00
2023-01-08T11:38:06.192Z,97019.00
2023-01-08T11:40:51.060Z,97021.00
2023-01-08T11:44:09.772Z,97040.00
2023-01-08T11:47:01.715Z,97024.00
2023-01-08T11:50:06.807Z,97018.00
2023-01-08T11:53:13.492Z,96996.00
2023-01-08T11:56:27.628Z,97007.00
2023-01-08T11:59:36.133Z,96999.00
2023-01-08T12:02:46.671Z,96985.00
2023-01-08T12:05:53.331Z,96970.00
2023-01-08T12:08:58.846Z,96973.00
2023-01-08T12:11:41.092Z,96970.00
2023-01-08T12:14:16.878Z,96979.00
2023-01-08T12:17:08.117Z,96986.00
2023-01-08T12:20:03.913Z,96972.00
2023-01-08T12:23:06.375Z,96976.00
2023-01-08T12:26:13.841Z,96974.00
2023-01-08T12:29:06.797Z,96993.00
2023-01-08T12:32:02.923Z,96980.00
2023-01-08T12:34:57.631Z,96982.00
2023-01-08T12:37:52.110Z,96984.00
2023-01-08T12:40:28.384Z,96974.00
2023-01-08T12:43:01.153Z,96975.00
2023-01-08T12:45:34.257Z,96972.00
2023-01-08T12:48:25.403Z,96964.00
2023-01-08T12:51:00.179Z,96969.00
2023-01-08T12:54:13.294Z,96964.00
2023-01-08T12:57:07.883Z,96966.00
2023-01-08T12:59:58.721Z,96944.00
2023-01-08T13:02:56.053Z,96952.00
2023-01-08T13:05:23.087Z,96954.00
2023-01-08T13:08:00.931Z,96950.00
2023-01-08T13:10:52.040Z,96944.00
2023-01-08T13:13:28.735Z,96927.00
2023-01-08T13:16:19.509Z,96927.00
2023-01-08T13:18:57.853Z,96914.00
2023-01-08T13:21:38.676Z,96896.00
2023-01-08T13:24:32.127Z,96891.00
2023-01-08T13:27:19.383Z,96887.00
2023-01-08T13:29:51.376Z,96887.00
2023-01-08T13:32:44.037Z,96884.00
2023-01-08T13:35:17.218Z,96887.00
2023-01-08T13:37:51.417Z,96876.00
2023-01-08T13:40:44.782Z,96879.00
2023-01-08T13:43:34.505Z,96880.00
2023-01-08T13:46:01.587Z,96890.00
2023-01-08T13:48:34.353Z,96885.00
2023-01-08T13:51:02.050Z,96881.00
2023-01-08T13:53:29.195Z,96883.00
2023-01-08T13:56:07.260Z,96903.00
2023-01-08T13:58:45.409Z,96904.00
2023-01-08T14:01:13.700Z,96902.00
2023-01-08T14:03:47.655Z,96909.00
2023-01-08T14:06:28.482Z,96902.00
2023-01-08T14:09:02.189Z,96892.00
2023-01-08T14:11:46.959Z,96895.00
2023-01-08T14:14:17.413Z,96900.00
2023-01-08T14:16:45.141Z,96902.00
2023-01-08T14:19:25.857Z,96904.00
2023-01-08T14:21:59.604Z,96898.00
2023-01-08T14:24:27.047Z,96902.00
2023-01-08T14:27:00.119Z,96901.00
2023-01-08T14:29:30.082Z,96892.00
2023-01-08T14:32:00.463Z,96884.00
2023-01-08T14:34:31.385Z,96884.00
2023-01-08T14:36:58.547Z,96878.00
2023-01-08T14:39:33.483Z,96885.00
2023-01-08T14:42:49.589Z,96874.00
2023-01-08T14:45:32.821Z,96863.00
2023-01-08T14:48:22.847Z,96868.00
2023-01-08T14:51:09.510Z,96864.00
2023-01-08T14:53:43.030Z,96865.00
2023-01-08T14:56:16.666Z,96867.00
2023-01-08T14:58:46.004Z,96864.00
2023-01-08T15:01:23.763Z,96871.00
2023-01-08T15:03:53.916Z,96858.00
2023-01-08T15:06:29.716Z,96858.00
2023-01-08T15:08:57.553Z,96856.00
2023-01-08T15:11:36.165Z,96871.00
2023-01-08T15:14:14.773Z,96867.00
2023-01-08T15:16:43.289Z,96867.00
2023-01-08T15:19:19.861Z,96864.00
2023-01-08T15:22:00.664Z,96880.00
2023-01-08T15:24:41.056Z,96865.00
2023-01-08T15:27:11.017Z,96857.00
2023-01-08T15:29:46.854Z,96864.00
2023-01-08T15:32:16.933Z,96871.00
2023-01-08T15:34:45.842Z,96860.00
2023-01-08T15:37:15.283Z,96851.00
2023-01-08T15:39:43.416Z,96862.00
2023-01-08T15:42:40.552Z,96847.00
2023-01-08T15:45:23.004Z,96848.00
2023-01-08T15:47:50.120Z,96847.00
2023-01-08T15:50:17.284Z,96843.00
2023-01-08T15:52:44.448Z,96851.00
2023-01-08T15:55:23.613Z,96856.00
2023-01-08T15:57:51.150Z,96844.00
2023-01-08T16:00:20.403Z,96860.00
2023-01-08T16:02:50.199Z,96846.00
2023-01-08T16:05:20.189Z,96849.00
2023-01-08T16:07:47.639Z,96851.00
2023-01-08T16:10:17.118Z,96842.00
2023-01-08T16:12:44.590Z,96843.00
2023-01-08T16:15:13.236Z,96840.00
2023-01-08T16:17:40.889Z,96838.00
2023-01-08T16:20:10.043Z,96836.00
2023-01-08T16:22:37.688Z,96826.00
2023-01-08T16:25:05.575Z,96823.00
2023-01-08T16:27:33.513Z,96803.00
2023-01-08T16:30:00.647Z,96801.00
2023-01-08T16:32:27.674Z,96791.00
2023-01-08T16:34:55.148Z,96787.00
2023-01-08T16:37:22.947Z,96790.00
2023-01-08T16:39:50.128Z,96779.00
2023-01-08T16:42:17.169Z,96774.00
2023-01-08T16:44:44.376Z,96762.00
2023-01-08T16:47:11.407Z,96756.00
2023-01-08T16:49:39.812Z,96753.00
2023-01-08T16:52:09.691Z,96758.00
2023-01-08T16:54:37.343Z,96750.00
2023-01-08T16:57:05.062Z,96757.00
2023-01-08T16:59:33.130Z,96750.00
2023-01-08T17:02:00.990Z,96759.00
2023-01-08T17:04:30.249Z,96755.00
2023-01-08T17:06:58.343Z,96749.00
2023-01-08T17:09:26.096Z,96734.00
2023-01-08T17:11:53.209Z,96715.00
2023-01-08T17:14:20.662Z,96719.00
2023-01-08T17:16:49.149Z,96704.00
2023-01-08T17:19:17.657Z,96705.00
2023-01-08T17:21:46.045Z,96686.00
2023-01-08T17:24:13.225Z,96676.00
2023-01-08T17:26:40.272Z,96674.00
2023-01-08T17:29:07.598Z,96662.00
2023-01-08T17:31:39.983Z,96656.00
2023-01-08T17:34:12.984Z,96655.00
2023-01-08T17:36:40.593Z,96646.00
2023-01-08T17:39:07.998Z,96645.00
2023-01-08T17:41:56.972Z,96631.00
2023-01-08T17:44:27.224Z,96629.00
2023-01-08T17:46:54.968Z,96631.00
2023-01-08T17:49:22.001Z,96631.00
2023-01-08T17:51:49.309Z,96633.00
2023-01-08T17:54:17.354Z,96632.00
2023-01-08T17:56:44.598Z,96636.00
2023-01-08T17:59:17.064Z,96638.00
2023-01-08T18:01:45.550Z,96630.00
2023-01-08T18:04:13.766Z,96636.00
2023-01-08T18:06:41.909Z,96629.00
2023-01-08T18:09:12.646Z,96644.00
2023-01-08T18:11:41.381Z,96636.00
2023-01-08T18:14:12.227Z,96631.00
2023-01-08T18:16:39.944Z,96625.00
2023-01-08T18:19:07.035Z,96623.00
2023-01-08T18:21:34.072Z,96623.00
2023-01-08T18:24:01.176Z,96624.00
2023-01-08T18:26:29.137Z,96621.00
2023-01-08T18:28:56.291Z,96610.00
2023-01-08T18:31:23.457Z,96608.00
2023-01-08T18:33:51.691Z,96608.00
2023-01-08T18:36:20.010Z,96607.00
2023-01-08T18:38:47.793Z,96598.00
2023-01-08T18:41:37.276Z,96602.00
2023-01-08T18:44:07.441Z,96594.00
2023-01-08T18:46:35.522Z,96595.00
2023-01-08T18:49:03.216Z,96572.00
2023-01-08T18:51:30.269Z,96562.00
2023-01-08T18:53:57.622Z,96560.00
2023-01-08T18:56:30.981Z,96563.00
2023-01-08T18:58:59.213Z,96545.00
2023-01-08T19:01:26.847Z,96544.00
2023-01-08T19:03:55.647Z,96527.00
2023-01-08T19:06:22.953Z,96523.00
2023-01-08T19:08:50.094Z,96515.00
2023-01-08T19:11:18.070Z,96503.00
2023-01-08T19:13:45.723Z,96503.00
2023-01-08T19:16:14.419Z,96498.00
2023-01-08T19:18:41.684Z,96499.00
2023-01-08T19:21:11.269Z,96491.00
2023-01-08T19:23:39.069Z,96491.00
2023-01-08T19:26:08.087Z,96490.00
2023-01-08T19:28:35.747Z,96488.00
2023-01-08T19:31:03.510Z,96490.00
2023-01-08T19:33:30.858Z,96473.00
2023-01-08T19:36:12.437Z,96486.00
2023-01-08T19:38:40.608Z,96474.00
2023-01-08T19:41:27.129Z,96486.00
2023-01-08T19:43:55.447Z,96474.00
2023-01-08T19:46:23.105Z,96466.00
2023-01-08T19:48:50.197Z,96468.00
2023-01-08T19:51:17.464Z,96455.00
2023-01-08T19:53:44.567Z,96448.00
2023-01-08T19:56:14.995Z,96453.00
2023-01-08T19:58:43.131Z,96450.00
2023-01-08T20:01:15.927Z,96443.00
2023-01-08T20:03:43.823Z,96430.00
2023-01-08T20:06:17.418Z,96426.00
2023-01-08T20:08:46.314Z,96413.00
2023-01-08T20:11:22.435Z,96406.00
2023-01-08T20:13:50.773Z,96396.00
2023-01-08T20:16:20.861Z,96384.00
2023-01-08T20:18:49.013Z,96389.00
2023-01-08T20:21:21.871Z,96394.00
2023-01-08T20:24:02.079Z,96404.00
2023-01-08T20:26:31.821Z,96399.00
2023-01-08T20:28:59.459Z,96401.00
2023-01-08T20:31:32.691Z,96383.00
2023-01-08T20:34:02.557Z,96386.00
2023-01-08T20:36:32.596Z,96375.00
2023-01-08T20:39:05.026Z,96364.00
2023-01-08T20:41:32.288Z,96354.00
2023-01-08T20:43:59.367Z,96359.00
2023-01-08T20:46:28.862Z,96345.00
2023-01-08T20:49:05.441Z,96348.00
2023-01-08T20:51:35.114Z,96347.00
2023-01-08T20:54:04.997Z,96352.00
2023-01-08T20:56:32.086Z,96335.00
2023-01-08T20:58:59.259Z,96326.00
2023-01-08T21:01:29.628Z,96317.00
2023-01-08T21:03:58.219Z,96303.00
2023-01-08T21:06:29.261Z,96298.00
2023-01-08T21:09:00.222Z,96303.00
2023-01-08T21:11:30.353Z,96281.00
2023-01-08T21:13:57.393Z,96281.00
2023-01-08T21:16:28.587Z,96270.00
2023-01-08T21:18:56.148Z,96268.00
2023-01-08T21:21:32.935Z,96277.00
2023-01-08T21:24:07.282Z,96282.00
2023-01-08T21:26:35.241Z,96276.00
2023-01-08T21:29:03.249Z,96260.00
2023-01-08T21:31:30.721Z,96257.00
2023-01-08T21:34:00.452Z,96258.00
2023-01-08T21:36:32.336Z,96256.00
2023-01-08T21:39:01.842Z,96252.00
2023-01-08T21:41:48.824Z,96260.00
2023-01-08T21:44:42.068Z,96263.00
2023-01-08T21:47:13.887Z,96251.00
2023-01-08T21:49:41.545Z,96256.00
2023-01-08T21:52:38.523Z,96249.00
2023-01-08T21:55:06.078Z,96256.00
2023-01-08T21:57:41.332Z,96269.00
2023-01-08T22:00:09.894Z,96269.00
2023-01-08T22:02:38.858Z,96270.00
2023-01-08T22:05:06.713Z,96261.00
2023-01-08T22:07:33.825Z,96267.00
2023-01-08T22:10:01.091Z,96264.00
2023-01-08T22:12:28.585Z,96267.00
2023-01-08T22:14:56.883Z,96269.00
2023-01-08T22:17:26.503Z,96254.00
2023-01-08T22:19:53.863Z,96239.00
2023-01-08T22:22:21.087Z,96230.00
2023-01-08T22:24:48.161Z,96238.00
2023-01-08T22:27:15.255Z,96244.00
2023-01-08T22:29:42.344Z,96268.00
2023-01-08T22:32:09.399Z,96256.00
2023-01-08T22:34:36.565Z,96238.00
2023-01-08T22:37:03.796Z,96243.00
2023-01-08T22:39:31.302Z,96234.00
2023-01-08T22:41:58.795Z,96219.00
2023-01-08T22:44:26.019Z,96201.00
2023-01-08T22:46:53.052Z,96197.00
2023-01-08T22:49:20.109Z,96188.00
2023-01-08T22:51:47.177Z,96168.00
2023-01-08T22:54:14.730Z,96161.00
2023-01-08T22:56:41.925Z,96152.00
2023-01-08T22:59:09.065Z,96166.00
2023-01-08T23:01:36.357Z,96175.00
2023-01-08T23:04:04.496Z,96166.00
2023-01-08T23:06:33.073Z,96155.00
2023-01-08T23:09:00.825Z,96250.00
2023-01-08T23:11:28.577Z,96186.00
2023-01-08T23:13:56.061Z,96208.00
2023-01-08T23:16:25.465Z,96177.00
2023-01-08T23:18:54.264Z,96134.00
2023-01-08T23:21:23.946Z,96141.00
2023-01-08T23:23:51.520Z,96132.00
2023-01-08T23:26:29.785Z,96161.00
2023-01-08T23:28:59.250Z,96162.00
2023-01-08T23:31:30.203Z,96152.00
2023-01-08T23:33:58.207Z,96182.00
2023-01-08T23:36:25.984Z,96144.00
2023-01-08T23:38:56.332Z,96157.00
2023-01-08T23:41:34.421Z,96175.00
2023-01-08T23:44:08.638Z,96129.00
2023-01-08T23:46:36.189Z,96124.00
2023-01-08T23:49:04.200Z,96130.00
2023-01-08T23:51:31.407Z,96122.00
2023-01-08T23:53:58.885Z,96107.00
2023-01-08T23:56:26.479Z,96111.00
2023-01-08T23:58:54.316Z,96125.00
